Time;durP1;ratioP1;P1;durP2;ratioP2;P2;SDS_P1;SDS_P2;PMS_P1;PMS_P2;Temp;Humidity;BMP_temperature;BMP_pressure;BME280_temperature;BME280_humidity;BME280_pressure;Samples;Min_cycle;Max_cycle;Signal;HPM_P1;HPM_P2
2023/02/12 00:01:39;;;;;;;41.50;18.20;;;;;;;-0.32;70.29;100310.50;105891;1295;22497;-78
2023/02/12 00:04:07;;;;;;;48.70;20.00;;;;;;;-0.33;70.38;100320.16;105911;1295;24270;-78
2023/02/12 00:06:38;;;;;;;43.60;19.30;;;;;;;-0.36;70.62;100323.14;105821;1286;25974;-79
2023/02/12 00:09:06;;;;;;;50.00;19.10;;;;;;;-0.38;70.90;100329.52;105872;1290;22546;-78
2023/02/12 00:11:35;;;;;;;51.40;20.20;;;;;;;-0.39;71.14;100331.70;105919;1295;22594;-78
2023/02/12 00:14:04;;;;;;;51.40;21.30;;;;;;;-0.41;71.67;100330.95;105728;1294;22681;-79
2023/02/12 00:16:32;;;;;;;51.40;20.20;;;;;;;-0.40;72.08;100335.23;105746;1295;23771;-80
2023/02/12 00:19:01;;;;;;;52.10;20.30;;;;;;;-0.39;71.67;100338.68;105880;1290;25262;-78
2023/02/12 00:21:29;;;;;;;54.50;20.50;;;;;;;-0.38;71.08;100341.93;105842;1282;22545;-78
2023/02/12 00:23:58;;;;;;;52.10;20.50;;;;;;;-0.38;71.78;100347.40;105988;1296;22559;-78
2023/02/12 00:26:27;;;;;;;55.20;19.60;;;;;;;-0.39;72.55;100345.66;105880;1295;22578;-78
2023/02/12 00:28:55;;;;;;;48.70;18.70;;;;;;;-0.38;71.38;100346.05;106003;1293;25984;-78
2023/02/12 00:31:28;;;;;;;43.90;19.40;;;;;;;-0.40;71.55;100347.00;105994;1285;22635;-78
2023/02/12 00:33:58;;;;;;;59.10;20.80;;;;;;;-0.42;73.07;100347.25;106009;1296;24918;-78
2023/02/12 00:36:28;;;;;;;56.40;20.00;;;;;;;-0.46;76.02;100339.25;108825;1289;23747;-78
2023/02/12 00:38:56;;;;;;;46.60;16.80;;;;;;;-0.48;77.25;100333.06;108786;1293;23496;-78
2023/02/12 00:41:29;;;;;;;46.70;19.00;;;;;;;-0.49;79.23;100329.42;108647;1296;22248;-78
2023/02/12 00:43:57;;;;;;;51.00;19.10;;;;;;;-0.49;76.00;100327.73;108779;1296;22906;-78
2023/02/12 00:46:26;;;;;;;56.40;21.40;;;;;;;-0.51;76.55;100329.02;107545;1296;22561;-78
2023/02/12 00:48:55;;;;;;;53.80;19.60;;;;;;;-0.50;79.62;100322.25;105964;1289;26664;-78
2023/02/12 00:51:23;;;;;;;61.80;20.60;;;;;;;-0.47;80.11;100317.09;105785;1297;25487;-78
2023/02/12 00:53:51;;;;;;;52.10;18.70;;;;;;;-0.44;78.75;100314.98;106101;1296;22697;-78
2023/02/12 00:56:20;;;;;;;53.30;20.10;;;;;;;-0.43;80.61;100313.00;105947;1296;22838;-78
2023/02/12 00:58:49;;;;;;;55.40;20.50;;;;;;;-0.40;81.34;100306.80;106705;1296;22570;-78
2023/02/12 01:01:21;;;;;;;50.60;19.70;;;;;;;-0.37;80.09;100310.15;106758;1296;26563;-79
2023/02/12 01:03:50;;;;;;;52.90;20.20;;;;;;;-0.33;79.11;100312.34;107055;1289;25303;-78
2023/02/12 01:06:20;;;;;;;48.70;20.10;;;;;;;-0.32;79.12;100306.08;106721;1296;22625;-78
2023/02/12 01:08:52;;;;;;;52.10;20.00;;;;;;;-0.31;79.85;100307.31;106632;1294;25306;-78
2023/02/12 01:11:20;;;;;;;49.90;19.70;;;;;;;-0.30;78.81;100313.13;106058;1296;24337;-80
2023/02/12 01:13:49;;;;;;;46.10;18.40;;;;;;;-0.33;79.87;100311.64;106030;1296;22580;-78
2023/02/12 01:16:20;;;;;;;56.30;19.80;;;;;;;-0.33;79.62;100302.80;105976;1289;25313;-78
2023/02/12 01:18:52;;;;;;;58.90;21.30;;;;;;;-0.33;79.25;100293.25;106235;1296;22547;-79
2023/02/12 01:21:26;;;;;;;53.80;19.90;;;;;;;-0.35;78.99;100288.41;106472;1292;22877;-78
2023/02/12 01:23:56;;;;;;;48.00;19.70;;;;;;;-0.37;80.27;100289.70;105999;1296;25150;-78
2023/02/12 01:26:26;;;;;;;46.80;19.50;;;;;;;-0.37;80.15;100291.75;105987;1296;25904;-78
2023/02/12 01:29:00;;;;;;;53.50;22.30;;;;;;;-0.42;81.31;100283.89;105679;1297;24458;-77
2023/02/12 01:31:31;;;;;;;54.90;21.00;;;;;;;-0.43;82.88;100276.20;106207;1289;25269;-78
2023/02/12 01:34:04;;;;;;;56.20;22.70;;;;;;;-0.42;82.74;100273.84;105912;1296;23643;-77
2023/02/12 01:36:36;;;;;;;47.90;20.40;;;;;;;-0.43;80.54;100281.31;108650;1291;22015;-79
2023/02/12 01:39:10;;;;;;;47.10;21.20;;;;;;;-0.45;82.49;100279.52;108449;1295;22536;-78
2023/02/12 01:41:44;;;;;;;56.00;20.90;;;;;;;-0.46;82.67;100278.98;107204;1296;23049;-77
2023/02/12 01:44:35;;;;;;;52.50;21.30;;;;;;;-0.48;83.53;100273.29;105810;1295;22574;-79
2023/02/12 01:47:05;;;;;;;49.40;19.10;;;;;;;-0.49;82.74;100272.20;105965;1296;25521;-78
2023/02/12 01:49:39;;;;;;;46.10;19.90;;;;;;;-0.51;81.22;100274.51;105869;1295;22811;-77
2023/02/12 01:52:26;;;;;;;55.40;20.40;;;;;;;-0.55;79.49;100271.10;106626;1291;22549;-79
2023/02/12 01:54:59;;;;;;;54.30;20.50;;;;;;;-0.61;80.78;100271.94;105851;1289;25832;-78
2023/02/12 01:57:31;;;;;;;56.70;21.30;;;;;;;-0.63;80.44;100276.61;105952;1289;23895;-78
2023/02/12 02:00:02;;;;;;;55.80;20.90;;;;;;;-0.67;80.32;100280.56;106048;1296;25262;-78
2023/02/12 02:02:46;;;;;;;51.60;20.10;;;;;;;-0.71;82.33;100278.52;105863;1296;22573;-78
2023/02/12 02:05:22;;;;;;;45.80;19.30;;;;;;;-0.72;80.76;100280.51;105991;1296;22672;-79
2023/02/12 02:07:52;;;;;;;52.80;19.80;;;;;;;-0.75;80.52;100277.66;105947;1282;22614;-78
2023/02/12 02:10:21;;;;;;;52.70;19.90;;;;;;;-0.79;81.02;100270.21;105973;1296;25396;-77
2023/02/12 02:15:40;;;;;;;55.30;20.40;;;;;;;-0.87;81.92;100271.78;105967;1289;22548;-78
2023/02/12 02:18:26;;;;;;;56.50;20.30;;;;;;;-0.88;82.77;100267.48;105920;1296;25354;-78
2023/02/12 02:21:39;;;;;;;58.40;19.80;;;;;;;-0.88;80.71;100273.42;105986;1296;24540;-78
2023/02/12 02:24:44;;;;;;;56.50;19.90;;;;;;;-0.89;82.98;100271.83;105611;1296;22549;-78
2023/02/12 02:27:32;;;;;;;67.20;22.10;;;;;;;-0.89;83.39;100280.56;105929;1295;22591;-78
2023/02/12 02:30:34;;;;;;;58.40;21.40;;;;;;;-0.86;83.53;100276.56;106082;1295;22587;-77
2023/02/12 02:33:32;;;;;;;66.90;21.60;;;;;;;-0.81;82.63;100275.23;105939;1289;23391;-79
2023/02/12 02:36:09;;;;;;;54.50;19.90;;;;;;;-0.80;83.22;100275.11;105992;1296;22532;-79
2023/02/12 02:38:54;;;;;;;56.70;19.40;;;;;;;-0.80;84.35;100281.90;106302;1296;25319;-78
2023/02/12 02:41:46;;;;;;;62.90;20.70;;;;;;;-0.78;84.10;100278.42;105943;1296;22859;-79
2023/02/12 02:44:25;;;;;;;54.20;20.20;;;;;;;-0.76;85.23;100274.08;105913;1296;25004;-79
2023/02/12 02:46:59;;;;;;;51.80;18.10;;;;;;;-0.72;85.81;100267.43;105791;1296;25373;-79
2023/02/12 02:49:37;;;;;;;54.30;18.80;;;;;;;-0.70;85.86;100271.58;105873;1296;25457;-78
2023/02/12 02:52:19;;;;;;;52.70;17.90;;;;;;;-0.67;85.60;100277.64;106052;1296;25236;-77
2023/02/12 02:54:53;;;;;;;50.10;19.60;;;;;;;-0.64;85.57;100281.03;105986;1296;25382;-78
2023/02/12 02:57:21;;;;;;;50.00;19.50;;;;;;;-0.61;85.60;100279.07;105348;1289;710749;-78
2023/02/12 02:59:57;;;;;;;55.40;21.20;;;;;;;-0.60;85.79;100280.65;105951;1295;25268;-77
2023/02/12 03:02:34;;;;;;;54.20;20.80;;;;;;;-0.58;84.05;100284.96;106220;1290;25424;-77
2023/02/12 03:05:16;;;;;;;55.90;20.00;;;;;;;-0.60;83.16;100290.02;108289;1296;22604;-79
2023/02/12 03:07:52;;;;;;;55.30;20.80;;;;;;;-0.61;83.24;100296.09;105952;1296;23780;-79
2023/02/12 03:10:31;;;;;;;46.10;18.90;;;;;;;-0.61;84.28;100291.67;105910;1287;22684;-77
2023/02/12 03:13:10;;;;;;;55.30;22.10;;;;;;;-0.65;84.16;100294.26;105926;1296;22565;-78
2023/02/12 03:15:43;;;;;;;41.90;18.80;;;;;;;-0.68;84.22;100294.98;105988;1289;25540;-79
2023/02/12 03:18:35;;;;;;;50.80;20.80;;;;;;;-0.69;84.18;100298.00;106028;1296;24899;-78
2023/02/12 03:21:10;;;;;;;51.10;19.40;;;;;;;-0.70;84.80;100302.07;105884;1296;24943;-77
2023/02/12 03:23:47;;;;;;;46.20;19.60;;;;;;;-0.71;84.31;100301.17;105866;1295;22570;-78
2023/02/12 03:26:21;;;;;;;52.60;21.00;;;;;;;-0.72;83.70;100298.90;105888;1295;24263;-78
2023/02/12 03:28:51;;;;;;;52.50;21.20;;;;;;;-0.75;83.78;100302.69;105737;1295;25447;-78
2023/02/12 03:31:29;;;;;;;48.90;18.60;;;;;;;-0.78;83.07;100311.27;105881;1295;22552;-78
2023/02/12 03:34:23;;;;;;;47.40;19.40;;;;;;;-0.80;81.19;100313.21;105891;1295;25148;-78
2023/02/12 03:37:01;;;;;;;55.30;21.20;;;;;;;-0.84;81.98;100317.83;105902;1296;22607;-77
2023/02/12 03:39:34;;;;;;;58.00;22.90;;;;;;;-0.85;83.11;100315.41;105805;1296;24234;-78
2023/02/12 03:42:17;;;;;;;58.30;21.00;;;;;;;-0.87;82.80;100320.80;105920;1296;22670;-78
2023/02/12 03:44:48;;;;;;;61.60;24.20;;;;;;;-0.88;82.36;100325.50;105919;1289;22551;-78
2023/02/12 03:47:19;;;;;;;70.00;23.80;;;;;;;-0.90;83.61;100325.75;105899;1287;24000;-77
2023/02/12 03:50:00;;;;;;;80.20;32.90;;;;;;;-0.94;81.37;100329.70;106016;1296;22670;-81
2023/02/12 03:52:29;;;;;;;84.70;34.20;;;;;;;-1.03;81.36;100325.43;105962;1294;22508;-78
2023/02/12 03:54:58;;;;;;;79.90;32.00;;;;;;;-1.11;83.44;100315.91;105915;1296;24266;-78
2023/02/12 03:57:32;;;;;;;78.30;30.20;;;;;;;-1.12;82.73;100314.50;105834;1295;23948;-78
2023/02/12 04:00:06;;;;;;;78.40;30.10;;;;;;;-1.17;81.85;100312.77;106113;1286;25990;-79
2023/02/12 04:02:42;;;;;;;80.10;30.90;;;;;;;-1.23;82.70;100314.05;105758;1295;22669;-78
2023/02/12 04:05:20;;;;;;;78.50;30.40;;;;;;;-1.27;83.61;100315.59;105962;1295;25332;-77
2023/02/12 04:07:51;;;;;;;90.20;36.50;;;;;;;-1.28;82.91;100314.70;106154;1295;22548;-77
2023/02/12 04:10:28;;;;;;;71.00;27.00;;;;;;;-1.27;83.03;100320.48;106055;1296;25303;-78
2023/02/12 04:13:18;;;;;;;78.40;31.00;;;;;;;-1.25;83.33;100322.45;105981;1295;22581;-78
2023/02/12 04:16:10;;;;;;;72.00;27.80;;;;;;;-1.26;82.57;100325.30;106772;1279;22658;-78
2023/02/12 04:18:45;;;;;;;71.80;30.80;;;;;;;-1.29;83.57;100332.50;106756;1297;22550;-78
2023/02/12 04:21:20;;;;;;;76.50;29.40;;;;;;;-1.29;82.36;100334.20;107231;1296;25503;-78
2023/02/12 04:24:34;;;;;;;89.00;28.60;;;;;;;-1.31;83.03;100332.23;106406;1295;24276;-78
2023/02/12 04:27:17;;;;;;;49.60;17.90;;;;;;;-1.33;83.72;100339.45;105359;1301;22697;-78
2023/02/12 04:29:48;;;;;;;73.40;27.60;;;;;;;-1.30;83.58;100342.32;106836;1289;22546;-79
2023/02/12 04:32:23;;;;;;;64.60;26.10;;;;;;;-1.30;83.35;100348.63;106994;1295;22510;-79
2023/02/12 04:35:03;;;;;;;72.00;28.30;;;;;;;-1.28;83.79;100355.33;106813;1296;25377;-79
2023/02/12 04:37:42;;;;;;;75.90;30.70;;;;;;;-1.28;84.05;100358.23;106545;1296;22897;-79
2023/02/12 04:40:17;;;;;;;80.70;31.90;;;;;;;-1.28;83.38;100362.99;106208;1295;25475;-79
2023/02/12 04:42:48;;;;;;;69.60;28.60;;;;;;;-1.29;82.82;100357.52;106184;1296;22680;-78
2023/02/12 04:45:25;;;;;;;75.20;28.50;;;;;;;-1.32;82.12;100363.65;106542;1295;22504;-81
2023/02/12 04:47:54;;;;;;;64.90;26.60;;;;;;;-1.32;81.68;100372.65;105598;1295;22572;-78
2023/02/12 04:50:23;;;;;;;62.30;25.20;;;;;;;-1.34;81.30;100372.42;106159;1295;22578;-78
2023/02/12 04:52:54;;;;;;;78.30;28.40;;;;;;;-1.36;80.81;100378.95;105957;1296;25427;-78
2023/02/12 04:55:22;;;;;;;72.00;27.40;;;;;;;-1.43;80.58;100382.91;105967;1296;22587;-78
2023/02/12 04:57:51;;;;;;;79.90;31.00;;;;;;;-1.48;80.63;100385.26;105975;1295;22650;-78
2023/02/12 05:00:19;;;;;;;67.90;28.00;;;;;;;-1.52;80.34;100389.52;105839;1295;24250;-77
2023/02/12 05:02:47;;;;;;;61.00;27.50;;;;;;;-1.55;80.71;100396.82;105993;1296;22553;-78
2023/02/12 05:05:17;;;;;;;73.50;30.50;;;;;;;-1.57;80.48;100403.90;105895;1296;22657;-78
2023/02/12 05:07:48;;;;;;;69.50;28.00;;;;;;;-1.62;80.55;100404.05;106091;1281;25419;-81
2023/02/12 05:10:17;;;;;;;78.70;32.40;;;;;;;-1.63;80.41;100403.44;106049;1296;23366;-79
2023/02/12 05:12:45;;;;;;;76.60;29.90;;;;;;;-1.68;81.02;100407.64;106007;1295;22569;-78
2023/02/12 05:15:14;;;;;;;72.10;29.30;;;;;;;-1.71;81.17;100418.43;106020;1296;25255;-79
2023/02/12 05:17:43;;;;;;;80.30;31.40;;;;;;;-1.72;81.03;100422.96;105654;1296;22569;-78
2023/02/12 05:20:12;;;;;;;76.50;32.20;;;;;;;-1.74;80.06;100431.34;105749;1296;24244;-78
2023/02/12 05:22:41;;;;;;;81.10;29.80;;;;;;;-1.78;80.71;100433.21;106042;1296;23045;-78
2023/02/12 05:25:09;;;;;;;80.30;30.70;;;;;;;-1.79;81.11;100438.27;106034;1296;25479;-78
2023/02/12 05:27:37;;;;;;;73.30;30.10;;;;;;;-1.80;80.84;100440.45;105722;1296;22574;-78
2023/02/12 05:30:08;;;;;;;81.70;29.30;;;;;;;-1.80;80.88;100441.95;105929;1296;22593;-79
2023/02/12 05:32:36;;;;;;;78.00;30.10;;;;;;;-1.80;81.68;100443.83;105927;1296;22545;-81
2023/02/12 05:35:05;;;;;;;78.20;30.00;;;;;;;-1.78;81.42;100449.02;105976;1296;24260;-79
2023/02/12 05:37:35;;;;;;;76.90;29.10;;;;;;;-1.78;81.23;100447.64;105980;1296;22589;-78
2023/02/12 05:40:07;;;;;;;63.50;26.90;;;;;;;-1.79;81.60;100445.76;106021;1296;22973;-78
2023/02/12 05:42:36;;;;;;;70.80;30.90;;;;;;;-1.79;81.63;100448.98;105886;1296;22695;-78
2023/02/12 05:45:05;;;;;;;73.50;30.40;;;;;;;-1.77;81.30;100459.27;105683;1295;22508;-78
2023/02/12 05:47:37;;;;;;;68.60;29.00;;;;;;;-1.77;81.33;100455.53;105898;1296;22609;-79
2023/02/12 05:50:06;;;;;;;67.10;28.80;;;;;;;-1.74;80.89;100459.20;105954;1295;25333;-78
2023/02/12 05:52:36;;;;;;;72.10;28.70;;;;;;;-1.73;81.13;100464.19;105899;1296;24358;-80
2023/02/12 05:55:05;;;;;;;71.90;29.10;;;;;;;-1.72;81.10;100461.55;106002;1296;23225;-78
2023/02/12 05:57:34;;;;;;;76.30;28.50;;;;;;;-1.69;80.88;100464.20;105981;1296;22689;-78
2023/02/12 06:00:05;;;;;;;70.70;28.10;;;;;;;-1.69;80.28;100469.14;105994;1295;24240;-79
2023/02/12 06:02:41;;;;;;;68.00;26.90;;;;;;;-1.68;80.71;100470.39;105937;1296;25313;-78
2023/02/12 06:05:10;;;;;;;71.90;29.80;;;;;;;-1.67;79.77;100476.20;105976;1296;22600;-78
2023/02/12 06:07:38;;;;;;;66.30;25.40;;;;;;;-1.67;79.44;100477.55;106038;1296;25533;-78
2023/02/12 06:10:10;;;;;;;72.90;24.30;;;;;;;-1.67;79.35;100482.86;106110;1289;22553;-78
2023/02/12 06:12:39;;;;;;;74.30;27.60;;;;;;;-1.66;79.50;100488.67;106044;1294;22583;-79
2023/02/12 06:15:08;;;;;;;64.00;27.30;;;;;;;-1.64;79.79;100489.79;105920;1295;23950;-82
2023/02/12 06:17:36;;;;;;;75.80;27.30;;;;;;;-1.60;79.96;100498.48;106092;1293;22691;-78
2023/02/12 06:20:05;;;;;;;73.10;27.10;;;;;;;-1.54;80.43;100504.50;106054;1289;22583;-79
2023/02/12 06:22:33;;;;;;;68.90;26.60;;;;;;;-1.47;81.21;100505.20;106047;1289;22573;-78
2023/02/12 06:25:04;;;;;;;69.80;27.60;;;;;;;-1.41;81.18;100505.14;106087;1289;23971;-77
2023/02/12 06:27:32;;;;;;;119.90;37.40;;;;;;;-1.32;81.41;100510.77;106039;1292;23684;-78
2023/02/12 06:30:00;;;;;;;113.20;36.30;;;;;;;-1.26;81.48;100503.94;105880;1296;25012;-78
2023/02/12 06:32:29;;;;;;;79.00;28.70;;;;;;;-1.16;81.60;100494.69;105992;1295;25316;-78
2023/02/12 06:34:58;;;;;;;108.10;35.70;;;;;;;-1.08;81.24;100498.95;105937;1292;24244;-79
2023/02/12 06:37:29;;;;;;;92.20;35.90;;;;;;;-0.99;81.48;100504.95;105955;1296;25601;-77
2023/02/12 06:39:57;;;;;;;82.70;31.10;;;;;;;-0.91;81.29;100506.64;105899;1296;22503;-80
2023/02/12 06:42:26;;;;;;;78.00;32.00;;;;;;;-0.86;80.96;100520.31;105655;1288;23816;-78
2023/02/12 06:44:54;;;;;;;73.90;29.20;;;;;;;-0.85;80.55;100521.22;106065;1289;22565;-78
2023/02/12 06:47:26;;;;;;;70.80;29.60;;;;;;;-0.84;80.04;100519.05;105696;1282;22611;-77
2023/02/12 06:49:54;;;;;;;77.10;31.00;;;;;;;-0.86;79.82;100524.58;106129;1296;24217;-78
2023/02/12 06:52:29;;;;;;;82.70;30.70;;;;;;;-0.84;80.05;100525.33;106098;1295;22564;-79
2023/02/12 06:54:57;;;;;;;116.00;41.10;;;;;;;-0.85;80.00;100516.98;106013;1286;24243;-78
2023/02/12 06:57:28;;;;;;;84.40;35.00;;;;;;;-0.83;80.07;100518.27;105938;1296;25149;-80
2023/02/12 06:59:57;;;;;;;80.10;32.20;;;;;;;-0.78;80.01;100523.23;105831;1292;22658;-78
2023/02/12 07:02:25;;;;;;;83.60;30.30;;;;;;;-0.76;79.11;100530.98;106038;1296;22893;-78
2023/02/12 07:04:54;;;;;;;65.40;28.10;;;;;;;-0.78;79.57;100531.40;105933;1296;22661;-78
2023/02/12 07:07:23;;;;;;;78.80;31.00;;;;;;;-0.77;79.19;100537.06;106004;1297;22652;-78
2023/02/12 07:09:51;;;;;;;84.10;32.30;;;;;;;-0.78;79.28;100539.38;105997;1296;24007;-78
2023/02/12 07:12:19;;;;;;;86.80;34.40;;;;;;;-0.77;79.76;100541.64;106000;1296;24270;-78
2023/02/12 07:14:47;;;;;;;82.30;31.90;;;;;;;-0.75;79.25;100542.40;105958;1289;22571;-78
2023/02/12 07:17:16;;;;;;;78.50;31.30;;;;;;;-0.77;78.99;100542.85;105678;1296;25524;-78
2023/02/12 07:19:49;;;;;;;86.80;33.90;;;;;;;-0.79;79.18;100534.95;105927;1296;22483;-78
2023/02/12 07:22:17;;;;;;;77.50;32.30;;;;;;;-0.78;78.92;100546.19;105729;1295;22542;-78
2023/02/12 07:24:46;;;;;;;82.50;34.40;;;;;;;-0.79;79.33;100543.27;105896;1296;22641;-79
2023/02/12 07:27:14;;;;;;;75.60;30.80;;;;;;;-0.76;79.34;100541.19;105892;1296;22564;-79
2023/02/12 07:29:43;;;;;;;76.50;29.80;;;;;;;-0.74;78.87;100547.39;105856;1285;23937;-80
2023/02/12 07:32:12;;;;;;;78.70;32.80;;;;;;;-0.73;79.17;100546.25;105706;1297;22555;-78
2023/02/12 07:34:40;;;;;;;76.40;28.20;;;;;;;-0.68;79.21;100552.43;105826;1289;22529;-78
2023/02/12 07:37:09;;;;;;;67.10;28.50;;;;;;;-0.66;79.06;100552.37;105751;1296;22587;-77
2023/02/12 07:39:37;;;;;;;77.10;32.40;;;;;;;-0.65;78.59;100552.23;105748;1291;22547;-78
2023/02/12 07:42:07;;;;;;;75.40;31.30;;;;;;;-0.64;78.85;100552.93;105868;1296;22778;-78
2023/02/12 07:44:36;;;;;;;72.00;30.50;;;;;;;-0.60;79.03;100554.48;106287;1296;22713;-79
2023/02/12 07:47:04;;;;;;;73.10;28.60;;;;;;;-0.56;78.98;100556.70;106932;1296;22563;-78
2023/02/12 07:49:33;;;;;;;70.90;29.20;;;;;;;-0.53;78.67;100554.95;106976;1296;23924;-78
2023/02/12 07:52:02;;;;;;;66.90;29.40;;;;;;;-0.50;78.78;100563.05;105795;1289;22586;-77
2023/02/12 07:54:30;;;;;;;64.90;27.60;;;;;;;-0.48;78.41;100558.72;105764;1296;22710;-78
2023/02/12 07:56:59;;;;;;;67.50;30.80;;;;;;;-0.45;78.29;100567.70;105772;1296;22570;-78
2023/02/12 07:59:27;;;;;;;78.50;32.00;;;;;;;-0.41;78.32;100560.93;105850;1296;22582;-78
2023/02/12 08:01:57;;;;;;;73.50;30.90;;;;;;;-0.36;78.30;100564.88;105960;1295;22565;-77
2023/02/12 08:04:25;;;;;;;75.10;31.10;;;;;;;-0.32;78.34;100567.62;105850;1289;22539;-78
2023/02/12 08:06:55;;;;;;;71.90;28.80;;;;;;;-0.25;78.88;100575.25;105887;1295;24247;-78
2023/02/12 08:09:26;;;;;;;75.60;30.60;;;;;;;-0.17;78.71;100576.23;105797;1296;24092;-79
2023/02/12 08:11:54;;;;;;;73.70;29.90;;;;;;;-0.08;78.45;100572.48;108581;1296;22226;-78
2023/02/12 08:14:23;;;;;;;68.00;27.80;;;;;;;0.01;78.36;100567.42;108810;1289;22191;-78
2023/02/12 08:16:51;;;;;;;78.30;29.80;;;;;;;0.11;78.35;100562.73;108788;1294;22168;-77
2023/02/12 08:19:23;;;;;;;72.80;30.80;;;;;;;0.23;78.25;100565.23;108830;1295;22217;-78
2023/02/12 08:21:55;;;;;;;75.20;30.20;;;;;;;0.32;78.02;100567.50;108012;1295;25379;-78
2023/02/12 08:24:27;;;;;;;76.50;32.70;;;;;;;0.41;77.66;100577.89;105986;1295;22550;-78
2023/02/12 08:26:55;;;;;;;76.80;32.30;;;;;;;0.40;76.88;100582.65;106857;1295;22562;-81
2023/02/12 08:29:29;;;;;;;90.10;34.20;;;;;;;0.41;76.84;100587.12;107152;1295;22557;-77
2023/02/12 08:31:59;;;;;;;;;;;;;;;0.46;76.52;100587.30;106687;1292;22533;-77
2023/02/12 08:34:31;;;;;;;78.80;31.80;;;;;;;0.53;77.16;100590.66;108994;1296;23340;-78
2023/02/12 08:37:00;;;;;;;73.50;31.40;;;;;;;0.56;77.27;100596.73;108800;1294;22350;-78
2023/02/12 08:39:29;;;;;;;70.90;28.10;;;;;;;0.58;76.57;100603.14;108811;1296;22205;-77
2023/02/12 08:41:59;;;;;;;69.00;27.80;;;;;;;0.64;76.68;100612.91;108770;1289;22189;-78
2023/02/12 08:44:28;;;;;;;79.00;32.10;;;;;;;0.70;76.60;100615.89;108746;1295;22181;-78
2023/02/12 08:46:57;;;;;;;93.40;35.00;;;;;;;0.75;76.66;100624.11;108601;1295;22244;-78
2023/02/12 08:49:28;;;;;;;70.50;29.30;;;;;;;0.82;76.14;100626.59;108589;1295;22567;-77
2023/02/12 08:51:58;;;;;;;78.50;31.30;;;;;;;0.88;74.79;100634.01;107757;1295;22623;-77
2023/02/12 08:54:28;;;;;;;84.70;32.90;;;;;;;0.98;74.92;100637.11;108784;1295;22224;-78
2023/02/12 08:56:59;;;;;;;69.80;31.50;;;;;;;1.04;74.89;100644.16;107651;1289;22556;-77
2023/02/12 08:59:27;;;;;;;79.20;32.50;;;;;;;1.10;75.27;100643.38;108830;1295;23058;-77
2023/02/12 09:01:59;;;;;;;78.90;31.70;;;;;;;1.15;75.33;100650.72;108783;1289;22380;-77
2023/02/12 09:04:28;;;;;;;75.50;30.90;;;;;;;1.16;74.96;100655.73;108807;1296;22350;-78
2023/02/12 09:06:59;;;;;;;74.20;32.00;;;;;;;1.21;75.43;100657.43;108540;1297;22156;-78
2023/02/12 09:09:27;;;;;;;84.30;33.40;;;;;;;1.26;75.02;100663.77;106426;1296;23362;-77
2023/02/12 09:11:58;;;;;;;68.80;29.90;;;;;;;1.30;75.23;100668.72;105651;1295;22639;-78
2023/02/12 09:14:26;;;;;;;71.30;29.60;;;;;;;1.33;75.15;100676.70;105605;1296;22566;-77
2023/02/12 09:16:56;;;;;;;75.60;34.60;;;;;;;1.39;74.44;100677.74;105828;1295;22708;-78
2023/02/12 09:19:26;;;;;;;66.70;30.60;;;;;;;1.43;74.33;100678.23;105780;1296;23427;-78
2023/02/12 09:21:55;;;;;;;65.50;29.70;;;;;;;1.47;74.32;100679.92;105782;1294;22542;-77
2023/02/12 09:24:26;;;;;;;66.10;29.40;;;;;;;1.53;74.45;100691.27;108538;1296;22217;-77
2023/02/12 09:26:55;;;;;;;64.80;27.20;;;;;;;1.58;74.72;100694.70;108784;1295;22250;-77
2023/02/12 09:29:24;;;;;;;67.20;28.30;;;;;;;1.65;74.73;100693.59;108783;1295;22213;-78
2023/02/12 09:31:52;;;;;;;66.10;29.10;;;;;;;1.73;74.27;100696.59;107393;1296;25319;-77
2023/02/12 09:34:21;;;;;;;64.80;28.40;;;;;;;1.78;74.34;100699.52;105775;1296;22564;-77
2023/02/12 09:36:49;;;;;;;64.10;27.80;;;;;;;1.90;74.72;100703.19;105806;1295;23382;-78
2023/02/12 09:39:19;;;;;;;71.00;29.10;;;;;;;2.01;74.63;100698.99;105810;1296;22680;-77
2023/02/12 09:42:35;;;;;;;70.10;30.90;;;;;;;2.13;74.37;100701.44;105833;1296;22608;-78
2023/02/12 09:45:23;;;;;;;74.50;29.90;;;;;;;2.27;74.08;100709.95;106049;1296;22678;-78
2023/02/12 09:48:21;;;;;;;70.40;29.30;;;;;;;2.38;73.95;100712.59;105753;1296;25093;-78
2023/02/12 09:50:58;;;;;;;65.30;28.90;;;;;;;2.49;73.47;100714.98;105716;1296;22767;-78
2023/02/12 09:53:33;;;;;;;73.10;31.20;;;;;;;2.49;72.55;100716.88;105786;1289;22540;-79
2023/02/12 09:56:02;;;;;;;71.40;29.50;;;;;;;2.48;72.13;100721.13;105737;1296;22694;-77
2023/02/12 09:58:49;;;;;;;67.10;28.70;;;;;;;2.52;73.05;100727.06;105777;1296;24281;-78
2023/02/12 10:01:22;;;;;;;64.60;28.40;;;;;;;2.55;71.92;100727.68;105771;1296;22552;-77
2023/02/12 10:03:51;;;;;;;70.00;29.60;;;;;;;2.62;72.47;100730.14;105748;1289;22556;-77
2023/02/12 10:06:26;;;;;;;67.80;28.20;;;;;;;2.68;72.90;100729.98;105725;1296;22538;-77
2023/02/12 10:08:57;;;;;;;62.00;28.50;;;;;;;2.74;72.59;100733.60;105781;1289;22568;-78
2023/02/12 10:11:57;;;;;;;66.50;28.30;;;;;;;2.79;72.14;100739.95;105851;1296;22565;-77
2023/02/12 10:14:40;;;;;;;67.50;28.90;;;;;;;2.85;72.26;100740.64;105405;1296;25316;-77
2023/02/12 10:17:30;;;;;;;82.40;30.80;;;;;;;2.89;72.33;100739.77;105762;1297;24296;-78
2023/02/12 10:20:27;;;;;;;69.70;30.50;;;;;;;2.94;72.48;100732.74;105758;1289;25208;-77
2023/02/12 10:23:45;;;;;;;65.30;30.40;;;;;;;2.96;72.48;100729.34;105737;1295;24304;-77
2023/02/12 10:26:24;;;;;;;65.40;29.20;;;;;;;3.00;72.14;100720.91;106354;1297;22555;-77
2023/02/12 10:28:58;;;;;;;67.30;28.30;;;;;;;3.06;71.55;100724.17;105717;1295;22723;-77
2023/02/12 10:31:43;;;;;;;63.10;26.60;;;;;;;3.12;72.02;100720.77;105652;1296;25313;-77
2023/02/12 10:34:20;;;;;;;64.00;26.90;;;;;;;3.15;73.24;100723.45;105701;1296;22600;-78
2023/02/12 10:36:57;;;;;;;61.60;28.20;;;;;;;3.10;72.93;100724.65;105789;1296;22504;-78
2023/02/12 10:39:30;;;;;;;61.00;26.40;;;;;;;3.05;71.38;100726.20;105778;1289;25310;-77
2023/02/12 10:42:20;;;;;;;65.70;27.20;;;;;;;3.06;71.45;100724.85;105752;1296;26009;-77
2023/02/12 10:44:52;;;;;;;59.70;25.90;;;;;;;3.12;71.63;100720.77;105749;1289;23338;-78
2023/02/12 10:47:22;;;;;;;60.10;26.90;;;;;;;3.18;71.27;100717.54;105701;1296;22574;-78
2023/02/12 10:50:01;;;;;;;62.30;27.60;;;;;;;3.25;71.80;100719.98;105754;1296;22541;-77
2023/02/12 10:52:54;;;;;;;65.80;26.30;;;;;;;3.35;71.98;100712.56;108788;1296;23581;-77
2023/02/12 10:55:26;;;;;;;57.20;25.90;;;;;;;3.43;71.51;100707.65;106825;1289;27597;-79
2023/02/12 10:58:01;;;;;;;60.00;26.00;;;;;;;3.53;71.16;100708.64;105741;1296;26567;-78
2023/02/12 11:00:42;;;;;;;56.20;26.10;;;;;;;3.59;70.50;100702.82;105805;1296;22574;-78
2023/02/12 11:03:22;;;;;;;53.60;23.50;;;;;;;3.65;70.77;100704.02;105793;1296;25370;-79
2023/02/12 11:05:55;;;;;;;54.60;23.50;;;;;;;3.64;69.79;100709.65;106487;1295;25420;-78
2023/02/12 11:08:35;;;;;;;59.10;25.50;;;;;;;3.67;69.82;100708.16;106610;1297;22559;-78
2023/02/12 11:11:32;;;;;;;61.50;25.50;;;;;;;3.75;70.53;100719.04;106533;1295;24326;-78
2023/02/12 11:14:15;;;;;;;62.90;27.00;;;;;;;3.87;71.43;100721.62;105658;1296;22590;-77
2023/02/12 11:16:52;;;;;;;61.10;26.30;;;;;;;3.92;70.89;100723.83;105911;1296;23042;-77
2023/02/12 11:19:26;;;;;;;60.60;26.00;;;;;;;3.96;70.79;100723.59;108758;1296;22316;-78
2023/02/12 11:22:17;;;;;;;60.60;25.20;;;;;;;4.01;70.16;100722.88;106473;1297;22709;-77
2023/02/12 11:25:00;;;;;;;60.40;25.50;;;;;;;4.03;70.11;100716.73;105640;1286;22545;-78
2023/02/12 11:27:31;;;;;;;58.10;24.20;;;;;;;4.08;69.60;100723.55;105641;1289;22571;-78
2023/02/12 11:30:31;;;;;;;56.80;25.00;;;;;;;4.18;69.41;100728.14;105613;1296;22548;-78
2023/02/12 11:33:40;;;;;;;57.30;25.80;;;;;;;4.23;69.21;100734.08;105569;1296;24287;-78
2023/02/12 11:36:42;;;;;;;56.10;24.40;;;;;;;4.28;67.37;100735.44;105667;1296;25355;-77
2023/02/12 11:39:35;;;;;;;56.40;24.80;;;;;;;4.31;65.51;100734.33;105989;1296;25635;-78